createdAt,value
2019-05-14T00:00:43.719Z,6.86
2019-05-14T00:01:43.748Z,6.85
2019-05-14T00:02:43.776Z,6.89
2019-05-14T00:03:43.807Z,6.93
2019-05-14T00:04:43.835Z,6.89
2019-05-14T00:05:43.862Z,6.85
2019-05-14T00:06:43.894Z,6.87
2019-05-14T00:07:43.928Z,6.89
2019-05-14T00:08:43.949Z,6.82
2019-05-14T00:09:43.978Z,6.83
2019-05-14T00:10:44.007Z,6.78
2019-05-14T00:11:44.035Z,6.78
2019-05-14T00:12:44.065Z,6.85
2019-05-14T00:13:44.095Z,6.89
2019-05-14T00:14:44.159Z,6.82
2019-05-14T00:15:44.150Z,6.85
2019-05-14T00:16:44.178Z,6.90
2019-05-14T00:17:44.208Z,6.86
2019-05-14T00:18:44.235Z,6.90
2019-05-14T00:19:44.269Z,6.93
2019-05-14T00:20:44.293Z,6.89
2019-05-14T00:21:44.324Z,6.90
2019-05-14T00:22:44.353Z,6.86
2019-05-14T00:23:44.380Z,6.97
2019-05-14T00:24:44.408Z,6.92
2019-05-14T00:25:44.440Z,6.89
2019-05-14T00:26:44.467Z,6.86
2019-05-14T00:27:44.498Z,6.83
2019-05-14T00:28:44.526Z,6.89
2019-05-14T00:29:44.553Z,6.89
2019-05-14T00:30:44.582Z,6.85
2019-05-14T00:31:44.611Z,6.85
2019-05-14T00:32:44.642Z,6.86
2019-05-14T00:33:44.667Z,6.90
2019-05-14T00:34:44.698Z,6.85
2019-05-14T00:35:44.724Z,6.85
2019-05-14T00:36:44.754Z,6.87
2019-05-14T00:37:44.780Z,6.87
2019-05-14T00:38:44.811Z,6.86
2019-05-14T00:39:44.837Z,6.89
2019-05-14T00:40:44.869Z,6.85
2019-05-14T00:41:44.894Z,6.92
2019-05-14T00:42:44.927Z,6.86
2019-05-14T00:43:44.953Z,6.86
2019-05-14T00:44:54.360Z,6.90
2019-05-14T00:45:45.010Z,6.80
2019-05-14T00:46:45.043Z,6.87
2019-05-14T00:47:45.068Z,6.86
2019-05-14T00:48:45.099Z,6.83
2019-05-14T00:49:45.125Z,6.89
2019-05-14T00:50:45.154Z,6.87
2019-05-14T00:51:45.184Z,6.87
2019-05-14T00:52:46.394Z,6.83
2019-05-14T00:53:45.240Z,6.85
2019-05-14T00:54:45.272Z,6.80
2019-05-14T00:55:45.298Z,6.87
2019-05-14T00:56:45.328Z,6.87
2019-05-14T00:57:45.364Z,6.90
2019-05-14T00:58:45.384Z,6.92
2019-05-14T00:59:45.417Z,6.82
2019-05-14T01:00:45.442Z,6.85
2019-05-14T01:01:45.472Z,6.87
2019-05-14T01:02:45.501Z,6.75
2019-05-14T01:03:45.528Z,6.75
2019-05-14T01:04:45.555Z,6.80
2019-05-14T01:05:45.585Z,6.80
2019-05-14T01:06:45.615Z,6.78
2019-05-14T01:07:45.644Z,6.85
2019-05-14T01:08:45.674Z,6.85
2019-05-14T01:09:45.701Z,6.87
2019-05-14T01:10:45.729Z,6.83
2019-05-14T01:11:45.760Z,6.82
2019-05-14T01:12:45.790Z,6.90
2019-05-14T01:13:45.812Z,6.85
2019-05-14T01:14:45.847Z,6.85
2019-05-14T01:15:45.872Z,6.83
2019-05-14T01:16:45.902Z,6.85
2019-05-14T01:17:45.936Z,6.93
2019-05-14T01:18:45.963Z,6.89
2019-05-14T01:19:45.987Z,6.82
2019-05-14T01:20:46.015Z,6.85
2019-05-14T01:21:46.044Z,6.90
2019-05-14T01:22:46.074Z,6.87
2019-05-14T01:23:46.104Z,6.89
2019-05-14T01:24:46.130Z,6.86
2019-05-14T01:25:46.160Z,6.87
2019-05-14T01:26:46.191Z,6.87
2019-05-14T01:27:46.223Z,6.92
2019-05-14T01:28:46.256Z,6.86
2019-05-14T01:29:46.274Z,6.90
2019-05-14T01:30:46.302Z,6.89
2019-05-14T01:31:46.332Z,6.92
2019-05-14T01:32:46.364Z,6.90
2019-05-14T01:33:46.390Z,6.92
2019-05-14T01:34:46.418Z,6.90
2019-05-14T01:35:46.448Z,6.87
2019-05-14T01:36:46.475Z,6.90
2019-05-14T01:37:46.506Z,6.93
2019-05-14T01:38:46.531Z,6.95
2019-05-14T01:39:46.567Z,6.93
2019-05-14T01:40:46.598Z,7.01
2019-05-14T01:41:46.621Z,6.90
2019-05-14T01:42:46.649Z,6.96
2019-05-14T01:43:46.680Z,6.90
2019-05-14T01:44:46.715Z,6.93
2019-05-14T01:45:46.736Z,6.95
2019-05-14T01:46:46.769Z,6.92
2019-05-14T01:47:46.794Z,6.87
2019-05-14T01:48:46.821Z,6.92
2019-05-14T01:49:46.850Z,6.96
2019-05-14T01:50:46.878Z,6.95
2019-05-14T01:51:46.907Z,6.95
2019-05-14T01:52:46.935Z,7.00
2019-05-14T01:53:46.964Z,6.95
2019-05-14T01:54:46.997Z,6.95
2019-05-14T01:55:47.022Z,7.00
2019-05-14T01:56:47.052Z,7.03
2019-05-14T01:57:47.079Z,7.03
2019-05-14T01:58:47.109Z,7.08
2019-05-14T01:59:47.139Z,7.00
2019-05-14T02:00:47.166Z,6.96
2019-05-14T02:01:47.195Z,7.00
2019-05-14T02:02:47.225Z,6.97
2019-05-14T02:03:47.253Z,6.93
2019-05-14T02:04:47.284Z,7.00
2019-05-14T02:05:47.312Z,7.01
2019-05-14T02:06:47.341Z,7.04
2019-05-14T02:07:47.373Z,7.07
2019-05-14T02:08:47.396Z,7.01
2019-05-14T02:09:47.424Z,7.08
2019-05-14T02:10:47.454Z,6.97
2019-05-14T02:11:47.484Z,7.05
2019-05-14T02:12:47.513Z,7.04
2019-05-14T02:13:48.475Z,7.04
2019-05-14T02:14:47.569Z,7.05
2019-05-14T02:15:47.606Z,7.01
2019-05-14T02:16:47.631Z,7.11
2019-05-14T02:17:47.656Z,7.04
2019-05-14T02:18:47.686Z,7.19
2019-05-14T02:19:47.713Z,7.18
2019-05-14T02:20:47.742Z,7.21
2019-05-14T02:21:47.777Z,7.15
2019-05-14T02:22:47.831Z,7.22
2019-05-14T02:23:47.829Z,7.18
2019-05-14T02:24:47.858Z,7.13
2019-05-14T02:25:47.886Z,7.18
2019-05-14T02:26:47.919Z,7.19
2019-05-14T02:27:47.946Z,7.15
2019-05-14T02:28:47.976Z,7.05
2019-05-14T02:29:48.003Z,7.23
2019-05-14T02:30:56.960Z,7.21
2019-05-14T02:31:50.367Z,7.23
2019-05-14T02:32:49.760Z,7.23
2019-05-14T02:33:50.428Z,7.21
2019-05-14T02:34:50.031Z,7.21
2019-05-14T02:35:49.433Z,7.21
2019-05-14T02:36:49.668Z,7.19
2019-05-14T02:37:50.387Z,7.14
2019-05-14T02:38:49.415Z,7.21
2019-05-14T02:39:50.133Z,7.18
2019-05-14T02:40:49.413Z,7.15
2019-05-14T02:41:49.883Z,7.13
2019-05-14T02:42:49.720Z,7.11
2019-05-14T02:43:50.242Z,7.39
2019-05-14T02:44:48.946Z,7.14
2019-05-14T02:46:04.526Z,7.14
2019-05-14T02:46:50.682Z,7.18
2019-05-14T02:47:50.297Z,7.22
2019-05-14T02:48:49.235Z,7.23
2019-05-14T02:49:50.255Z,7.37
2019-05-14T02:50:49.629Z,7.14
2019-05-14T02:51:50.486Z,7.31
2019-05-14T02:52:49.581Z,7.19
2019-05-14T02:53:49.789Z,7.14
2019-05-14T02:54:49.767Z,7.26
2019-05-14T02:55:49.788Z,7.25
2019-05-14T02:56:49.596Z,7.25
2019-05-14T02:57:50.039Z,7.31
2019-05-14T02:58:49.917Z,7.25
2019-05-14T02:59:50.163Z,7.29
2019-05-14T03:00:49.279Z,7.32
2019-05-14T03:01:50.381Z,7.32
2019-05-14T03:02:49.532Z,7.26
2019-05-14T03:03:49.647Z,7.28
2019-05-14T03:04:49.823Z,7.37
2019-05-14T03:05:49.797Z,7.36
2019-05-14T03:06:49.789Z,7.37
2019-05-14T03:07:50.115Z,7.37
2019-05-14T03:08:49.547Z,7.37
2019-05-14T03:09:50.202Z,7.39
2019-05-14T03:10:50.205Z,7.23
2019-05-14T03:11:49.223Z,7.33
2019-05-14T03:12:50.417Z,7.39
2019-05-14T03:13:49.703Z,7.36
2019-05-14T03:14:50.132Z,7.39
2019-05-14T03:15:49.908Z,7.39
2019-05-14T03:16:49.848Z,7.32
2019-05-14T03:17:49.651Z,7.39
2019-05-14T03:18:50.187Z,7.32
2019-05-14T03:19:49.848Z,7.40
2019-05-14T03:20:50.455Z,7.36
2019-05-14T03:21:50.340Z,7.40
2019-05-14T03:23:02.032Z,7.37
2019-05-14T03:23:49.924Z,7.41
2019-05-14T03:24:50.205Z,7.33
2019-05-14T03:25:49.718Z,7.36
2019-05-14T03:26:50.254Z,7.46
2019-05-14T03:27:50.011Z,7.44
2019-05-14T03:28:50.104Z,7.48
2019-05-14T03:29:50.295Z,7.46
2019-05-14T03:30:52.353Z,7.50
2019-05-14T03:31:52.555Z,7.46
2019-05-14T03:32:52.785Z,7.47
2019-05-14T03:33:52.547Z,7.53
2019-05-14T03:34:53.166Z,7.51
2019-05-14T03:35:57.825Z,7.48
2019-05-14T03:36:52.923Z,7.51
2019-05-14T03:37:50.094Z,7.51
2019-05-14T03:38:50.480Z,7.55
2019-05-14T03:39:50.038Z,7.51
2019-05-14T03:40:50.092Z,7.55
2019-05-14T03:41:50.292Z,7.58
2019-05-14T03:42:50.127Z,7.58
2019-05-14T03:43:50.180Z,7.55
2019-05-14T03:44:50.189Z,7.62
2019-05-14T03:45:50.214Z,7.64
2019-05-14T03:46:55.237Z,7.67
2019-05-14T03:47:50.730Z,7.66
2019-05-14T03:48:50.304Z,7.67
2019-05-14T03:49:50.331Z,7.74
2019-05-14T03:50:50.361Z,7.69
2019-05-14T03:51:50.391Z,7.66
2019-05-14T03:52:50.419Z,7.67
2019-05-14T03:54:00.987Z,7.69
2019-05-14T03:54:50.478Z,7.77
2019-05-14T03:55:50.847Z,7.77
2019-05-14T03:56:50.541Z,7.70
2019-05-14T03:57:50.568Z,7.70
2019-05-14T03:58:50.604Z,7.72
2019-05-14T03:59:50.664Z,7.66
2019-05-14T04:00:51.055Z,7.70
2019-05-14T04:01:51.278Z,7.75
2019-05-14T04:02:50.747Z,7.77
2019-05-14T04:03:50.768Z,7.72
2019-05-14T04:04:50.788Z,7.87
2019-05-14T04:05:50.807Z,7.72
2019-05-14T04:06:50.845Z,7.87
2019-05-14T04:07:50.865Z,7.74
2019-05-14T04:08:50.894Z,7.80
2019-05-14T04:09:50.923Z,7.84
2019-05-14T04:10:54.236Z,7.80
2019-05-14T04:11:50.985Z,7.81
2019-05-14T04:12:51.021Z,7.85
2019-05-14T04:13:51.042Z,7.84
2019-05-14T04:14:51.075Z,7.88
2019-05-14T04:15:51.110Z,7.85
2019-05-14T04:17:05.463Z,7.80
2019-05-14T04:17:51.164Z,7.84
2019-05-14T04:18:51.195Z,7.90
2019-05-14T04:19:51.224Z,8.01
2019-05-14T04:20:51.253Z,7.98
2019-05-14T04:21:51.285Z,7.98
2019-05-14T04:22:51.333Z,7.99
2019-05-14T04:23:51.543Z,7.96
2019-05-14T04:24:51.374Z,7.96
2019-05-14T04:25:51.409Z,8.01
2019-05-14T04:27:02.625Z,7.99
2019-05-14T04:27:51.491Z,7.96
2019-05-14T04:28:51.499Z,8.03
2019-05-14T04:29:51.524Z,8.06
2019-05-14T04:30:51.552Z,8.11
2019-05-14T04:31:51.583Z,8.13
2019-05-14T04:32:51.830Z,8.11
2019-05-14T04:33:51.643Z,8.03
2019-05-14T04:34:51.684Z,8.02
2019-05-14T04:35:51.703Z,8.05
2019-05-14T04:36:51.736Z,8.03
2019-05-14T04:37:51.769Z,8.09
2019-05-14T04:38:55.198Z,8.13
2019-05-14T04:39:51.824Z,8.21
2019-05-14T04:40:51.855Z,8.23
2019-05-14T04:41:51.885Z,8.18
2019-05-14T04:42:51.915Z,8.16
2019-05-14T04:43:51.945Z,8.13
2019-05-14T04:44:51.980Z,8.23
2019-05-14T04:45:52.005Z,8.21
2019-05-14T04:46:52.035Z,8.23
2019-05-14T04:47:52.070Z,8.27
2019-05-14T04:48:52.098Z,8.39
2019-05-14T04:49:52.149Z,8.36
2019-05-14T04:50:52.157Z,8.36
2019-05-14T04:51:52.188Z,8.50
2019-05-14T04:52:52.217Z,8.35
2019-05-14T04:53:52.251Z,8.38
2019-05-14T04:54:52.277Z,8.52
2019-05-14T04:55:52.310Z,8.36
2019-05-14T04:56:52.345Z,8.46
2019-05-14T04:57:52.370Z,8.44
2019-05-14T04:58:52.404Z,8.53
2019-05-14T04:59:52.434Z,8.46
2019-05-14T05:00:52.465Z,8.60
2019-05-14T05:01:52.492Z,8.50
2019-05-14T05:02:52.522Z,8.32
2019-05-14T05:03:52.556Z,8.46
2019-05-14T05:04:52.586Z,8.52
2019-05-14T05:05:52.613Z,8.56
2019-05-14T05:06:52.644Z,8.44
2019-05-14T05:07:52.678Z,8.56
2019-05-14T05:08:52.713Z,8.49
2019-05-14T05:09:52.739Z,8.49
2019-05-14T05:10:52.770Z,8.56
2019-05-14T05:11:52.803Z,8.69
2019-05-14T05:12:52.834Z,8.75
2019-05-14T05:13:52.860Z,8.71
2019-05-14T05:14:52.890Z,8.79
2019-05-14T05:15:52.925Z,8.81
2019-05-14T05:16:52.957Z,8.79
2019-05-14T05:17:53.363Z,8.90
2019-05-14T05:18:53.015Z,8.89
2019-05-14T05:19:53.049Z,8.97
2019-05-14T05:20:53.078Z,8.74
2019-05-14T05:21:53.108Z,8.89
2019-05-14T05:22:53.140Z,8.89
2019-05-14T05:23:53.170Z,8.78
2019-05-14T05:24:53.254Z,8.81
2019-05-14T05:25:53.237Z,8.96
2019-05-14T05:26:53.266Z,8.90
2019-05-14T05:27:56.371Z,9.05
2019-05-14T05:29:03.759Z,9.13
2019-05-14T05:29:53.361Z,9.21
2019-05-14T05:30:53.389Z,9.36
2019-05-14T05:31:53.422Z,9.27
2019-05-14T05:32:53.455Z,9.26
2019-05-14T05:33:53.487Z,9.31
2019-05-14T05:34:53.519Z,9.47
2019-05-14T05:35:53.548Z,9.55
2019-05-14T05:36:53.584Z,9.58
2019-05-14T05:37:53.612Z,9.70
2019-05-14T05:38:53.644Z,9.73
2019-05-14T05:39:53.677Z,9.76
2019-05-14T05:40:56.691Z,9.56
2019-05-14T05:41:53.740Z,9.85
2019-05-14T05:42:53.773Z,9.74
2019-05-14T05:43:53.807Z,9.67
2019-05-14T05:44:53.841Z,9.73
2019-05-14T05:45:53.869Z,9.87
2019-05-14T05:46:53.904Z,9.87
2019-05-14T05:47:58.205Z,9.91
2019-05-14T05:48:53.968Z,10.06
2019-05-14T05:49:54.002Z,9.91
2019-05-14T05:50:54.032Z,9.76
2019-05-14T05:51:54.067Z,9.90
2019-05-14T05:52:54.104Z,9.74
2019-05-14T05:53:54.132Z,9.91
2019-05-14T05:54:54.165Z,9.74
2019-05-14T05:55:54.197Z,9.66
2019-05-14T05:56:54.230Z,9.63
2019-05-14T05:57:54.261Z,9.70
2019-05-14T05:58:54.295Z,9.95
2019-05-14T05:59:54.327Z,10.05
2019-05-14T06:00:54.374Z,10.20
2019-05-14T06:01:54.424Z,10.24
2019-05-14T06:02:54.425Z,10.42
2019-05-14T06:03:54.459Z,10.42
2019-05-14T06:04:54.494Z,10.46
2019-05-14T06:05:54.529Z,10.67
2019-05-14T06:06:54.561Z,10.65
2019-05-14T06:07:54.589Z,10.42
2019-05-14T06:08:54.625Z,10.27
2019-05-14T06:09:54.657Z,10.84
2019-05-14T06:10:54.694Z,11.02
2019-05-14T06:11:54.724Z,11.27
2019-05-14T06:12:54.760Z,11.52
2019-05-14T06:13:54.790Z,11.63
2019-05-14T06:14:54.828Z,11.78
2019-05-14T06:15:54.859Z,11.51
2019-05-14T06:16:54.896Z,11.15
2019-05-14T06:18:09.324Z,11.01
2019-05-14T06:18:54.968Z,11.10
2019-05-14T06:19:54.996Z,11.31
2019-05-14T06:20:55.029Z,11.41
2019-05-14T06:21:55.065Z,11.59
2019-05-14T06:22:55.099Z,11.89
2019-05-14T06:23:55.130Z,12.62
2019-05-14T06:24:55.169Z,12.37
2019-05-14T06:25:55.202Z,12.69
2019-05-14T06:26:55.237Z,13.19
2019-05-14T06:27:55.269Z,12.86
2019-05-14T06:28:55.305Z,13.05
2019-05-14T06:29:55.343Z,12.76
2019-05-14T06:30:55.379Z,12.53
2019-05-14T06:31:55.426Z,12.51
2019-05-14T06:32:55.449Z,12.35
2019-05-14T06:33:55.486Z,12.30
2019-05-14T06:34:55.529Z,12.02
2019-05-14T06:35:55.561Z,11.99
2019-05-14T06:36:55.592Z,11.97
2019-05-14T06:37:55.627Z,11.80
2019-05-14T06:38:55.663Z,12.40
2019-05-14T06:39:55.700Z,12.15
2019-05-14T06:40:55.736Z,12.14
2019-05-14T06:41:58.351Z,12.61
2019-05-14T06:42:55.808Z,12.61
2019-05-14T06:43:55.852Z,12.28
2019-05-14T06:44:58.428Z,12.10
2019-05-14T06:45:58.336Z,11.70
2019-05-14T06:46:55.952Z,11.67
2019-05-14T06:47:55.987Z,11.53
2019-05-14T06:48:56.025Z,11.73
2019-05-14T06:49:56.063Z,11.62
2019-05-14T06:50:58.228Z,11.73
2019-05-14T06:51:59.031Z,12.17
2019-05-14T06:52:58.109Z,12.57
2019-05-14T06:53:58.616Z,13.05
2019-05-14T06:54:58.288Z,13.36
2019-05-14T06:55:58.560Z,13.12
2019-05-14T06:56:58.263Z,13.43
2019-05-14T06:57:58.379Z,13.85
2019-05-14T06:58:58.499Z,14.38
2019-05-14T06:59:58.748Z,14.56
2019-05-14T07:00:58.679Z,14.81
2019-05-14T07:01:57.994Z,15.11
2019-05-14T07:02:58.319Z,15.18
2019-05-14T07:03:58.073Z,14.74
2019-05-14T07:04:58.812Z,14.48
2019-05-14T07:05:56.655Z,13.68
2019-05-14T07:06:58.953Z,12.86
2019-05-14T07:07:59.538Z,13.03
2019-05-14T07:08:58.827Z,13.75
2019-05-14T07:09:58.199Z,14.41
2019-05-14T07:10:59.038Z,14.90
2019-05-14T07:11:58.483Z,15.51
2019-05-14T07:12:59.165Z,15.22
2019-05-14T07:13:58.084Z,14.58
2019-05-14T07:14:58.517Z,14.11
2019-05-14T07:15:58.451Z,14.18
2019-05-14T07:16:58.921Z,14.23
2019-05-14T07:17:58.431Z,13.94
2019-05-14T07:18:59.073Z,13.83
2019-05-14T07:19:58.180Z,13.68
2019-05-14T07:20:58.832Z,13.83
2019-05-14T07:21:58.271Z,14.45
2019-05-14T07:22:58.645Z,14.62
2019-05-14T07:23:59.342Z,13.71
2019-05-14T07:24:58.753Z,14.00
2019-05-14T07:25:58.912Z,14.12
2019-05-14T07:26:58.594Z,13.93
2019-05-14T07:27:58.316Z,13.17
2019-05-14T07:28:59.023Z,13.37
2019-05-14T07:29:58.355Z,14.07
2019-05-14T07:30:59.265Z,14.81
2019-05-14T07:31:58.249Z,14.90
2019-05-14T07:32:58.796Z,15.00
2019-05-14T07:33:58.260Z,15.78
2019-05-14T07:34:59.611Z,15.83
2019-05-14T07:35:59.379Z,15.00
2019-05-14T07:36:58.699Z,15.10
2019-05-14T07:37:59.103Z,15.07
2019-05-14T07:39:00.116Z,15.23
2019-05-14T07:39:58.132Z,15.75
2019-05-14T07:40:58.695Z,15.76
2019-05-14T07:41:59.004Z,16.06
2019-05-14T07:42:58.395Z,16.66
2019-05-14T07:43:58.691Z,16.89
2019-05-14T07:44:58.884Z,16.98
2019-05-14T07:45:58.433Z,17.44
2019-05-14T07:46:58.999Z,17.41
2019-05-14T07:47:58.420Z,16.34
2019-05-14T07:49:08.108Z,16.09
2019-05-14T07:49:58.412Z,16.12
2019-05-14T07:51:00.016Z,15.91
2019-05-14T07:51:58.838Z,16.41
2019-05-14T07:52:58.827Z,16.55
2019-05-14T07:53:58.586Z,16.17
2019-05-14T07:54:58.811Z,14.44
2019-05-14T07:55:59.145Z,14.59
2019-05-14T07:56:59.170Z,14.97
2019-05-14T07:57:58.805Z,14.94
2019-05-14T07:59:02.079Z,14.01
2019-05-14T07:59:59.037Z,14.33
2019-05-14T08:00:58.883Z,15.55
2019-05-14T08:01:58.921Z,15.90
2019-05-14T08:02:58.963Z,16.06
2019-05-14T08:04:00.186Z,15.94
2019-05-14T08:04:59.054Z,16.64
2019-05-14T08:05:59.093Z,17.05
2019-05-14T08:06:59.135Z,17.71
2019-05-14T08:07:59.176Z,17.44
2019-05-14T08:08:59.385Z,17.24
2019-05-14T08:09:59.265Z,17.60
2019-05-14T08:10:59.409Z,17.87
2019-05-14T08:11:59.355Z,18.03
2019-05-14T08:12:59.394Z,16.82
2019-05-14T08:13:59.438Z,17.01
2019-05-14T08:15:14.095Z,17.54
2019-05-14T08:15:59.535Z,17.05
2019-05-14T08:16:59.713Z,17.04
2019-05-14T08:17:59.623Z,16.16
2019-05-14T08:19:00.179Z,16.65
2019-05-14T08:19:59.712Z,17.50
2019-05-14T08:20:59.766Z,17.57
2019-05-14T08:21:59.804Z,17.27
2019-05-14T08:22:59.846Z,18.03
2019-05-14T08:23:59.893Z,17.94
2019-05-14T08:24:59.934Z,18.31
2019-05-14T08:26:03.658Z,17.75
2019-05-14T08:27:00.015Z,18.02
2019-05-14T08:28:00.063Z,17.72
2019-05-14T08:29:00.103Z,17.50
2019-05-14T08:30:00.149Z,16.59
2019-05-14T08:31:00.191Z,15.83
2019-05-14T08:32:00.241Z,15.57
2019-05-14T08:33:00.280Z,15.43
2019-05-14T08:34:04.893Z,15.30
2019-05-14T08:35:00.370Z,14.94
2019-05-14T08:36:00.415Z,15.14
2019-05-14T08:37:04.000Z,14.97
2019-05-14T08:38:07.809Z,14.67
2019-05-14T08:39:00.546Z,14.63
2019-05-14T08:40:00.594Z,14.99
2019-05-14T08:41:00.637Z,14.49
2019-05-14T08:42:04.004Z,14.70
2019-05-14T08:43:00.721Z,15.18
2019-05-14T08:44:00.765Z,15.43
2019-05-14T08:45:04.744Z,15.94
2019-05-14T08:46:00.854Z,15.73
2019-05-14T08:47:00.894Z,15.59
2019-05-14T08:48:00.940Z,15.51
2019-05-14T08:49:00.985Z,15.36
2019-05-14T08:50:01.023Z,15.33
2019-05-14T08:51:01.074Z,15.81
2019-05-14T08:52:01.111Z,15.78
2019-05-14T08:53:01.154Z,15.76
2019-05-14T08:54:01.199Z,16.08
2019-05-14T08:55:10.886Z,16.40
2019-05-14T08:56:01.285Z,15.91
2019-05-14T08:57:01.327Z,15.44
2019-05-14T08:58:01.485Z,14.96
2019-05-14T08:59:01.415Z,15.17
2019-05-14T09:00:01.457Z,15.60
2019-05-14T09:01:01.504Z,16.28
2019-05-14T09:02:06.306Z,15.90
2019-05-14T09:03:03.273Z,15.65
2019-05-14T09:04:01.630Z,15.48
2019-05-14T09:05:04.611Z,14.52
2019-05-14T09:06:01.716Z,15.30
2019-05-14T09:07:01.757Z,16.17
2019-05-14T09:08:01.802Z,15.92
2019-05-14T09:09:01.843Z,16.18
2019-05-14T09:10:01.903Z,16.58
2019-05-14T09:11:01.932Z,17.07
2019-05-14T09:12:02.000Z,16.82
2019-05-14T09:13:02.773Z,16.84
2019-05-14T09:14:02.065Z,17.32
2019-05-14T09:15:02.146Z,17.16
2019-05-14T09:16:02.149Z,17.38
2019-05-14T09:17:02.194Z,17.54
2019-05-14T09:18:03.609Z,17.37
2019-05-14T09:19:02.286Z,16.61
2019-05-14T09:20:07.033Z,16.26
2019-05-14T09:21:02.371Z,15.66
2019-05-14T09:22:02.425Z,15.78
2019-05-14T09:23:02.459Z,16.09
2019-05-14T09:24:02.508Z,16.47
2019-05-14T09:25:02.552Z,17.02
2019-05-14T09:26:02.597Z,16.59
2019-05-14T09:27:05.430Z,16.97
2019-05-14T09:28:02.686Z,17.19
2019-05-14T09:29:18.166Z,17.56
2019-05-14T09:30:02.773Z,17.63
2019-05-14T09:31:02.818Z,17.91
2019-05-14T09:32:02.862Z,17.76
2019-05-14T09:33:02.909Z,17.41
2019-05-14T09:34:02.966Z,17.57
2019-05-14T09:35:03.015Z,17.90
2019-05-14T09:36:17.546Z,17.35
2019-05-14T09:37:03.104Z,17.90
2019-05-14T09:38:03.139Z,18.09
2019-05-14T09:39:03.187Z,17.98
2019-05-14T09:40:03.230Z,18.00
2019-05-14T09:41:11.159Z,17.50
2019-05-14T09:42:03.320Z,17.02
2019-05-14T09:43:03.367Z,17.53
2019-05-14T09:44:03.415Z,16.51
2019-05-14T09:45:03.465Z,16.36
2019-05-14T09:46:03.505Z,15.99
2019-05-14T09:47:03.551Z,16.37
2019-05-14T09:48:03.602Z,17.02
2019-05-14T09:49:03.650Z,17.14
2019-05-14T09:50:16.447Z,15.75
2019-05-14T09:51:03.735Z,15.62
2019-05-14T09:52:03.782Z,15.85
2019-05-14T09:53:03.830Z,16.47
2019-05-14T09:54:03.874Z,17.07
2019-05-14T09:55:03.924Z,17.24
2019-05-14T09:56:03.966Z,17.79
2019-05-14T09:57:04.013Z,17.76
2019-05-14T09:58:04.081Z,18.05
2019-05-14T09:59:04.108Z,17.97
2019-05-14T10:00:04.150Z,17.71
2019-05-14T10:01:04.198Z,17.42
2019-05-14T10:02:04.243Z,17.10
2019-05-14T10:03:04.291Z,17.46
2019-05-14T10:04:04.342Z,17.13
2019-05-14T10:05:04.381Z,17.39
2019-05-14T10:06:04.427Z,17.38
2019-05-14T10:07:04.488Z,16.68
2019-05-14T10:08:04.520Z,17.27
2019-05-14T10:09:04.570Z,16.51
2019-05-14T10:10:04.612Z,15.96
2019-05-14T10:11:04.666Z,16.39
2019-05-14T10:12:04.707Z,16.21
2019-05-14T10:13:04.753Z,15.78
2019-05-14T10:14:04.800Z,16.05
2019-05-14T10:15:04.852Z,16.61
2019-05-14T10:16:04.890Z,17.05
2019-05-14T10:17:04.939Z,16.97
2019-05-14T10:18:04.993Z,17.01
2019-05-14T10:19:05.029Z,17.02
2019-05-14T10:20:05.075Z,16.80
2019-05-14T10:21:05.121Z,15.76
2019-05-14T10:22:05.167Z,16.24
2019-05-14T10:23:05.212Z,16.10
2019-05-14T10:24:05.267Z,15.36
2019-05-14T10:25:05.311Z,15.52
2019-05-14T10:26:05.359Z,15.85
2019-05-14T10:27:05.396Z,15.65
2019-05-14T10:28:05.443Z,16.18
2019-05-14T10:29:05.488Z,15.90
2019-05-14T10:30:05.536Z,16.36
2019-05-14T10:31:05.587Z,16.36
2019-05-14T10:32:05.625Z,15.65
2019-05-14T10:33:10.568Z,16.05
2019-05-14T10:34:08.238Z,15.92
2019-05-14T10:35:08.399Z,16.58
2019-05-14T10:36:05.810Z,16.51
2019-05-14T10:37:08.401Z,16.62
2019-05-14T10:38:08.585Z,17.14
2019-05-14T10:39:05.947Z,17.52
2019-05-14T10:40:05.990Z,17.69
2019-05-14T10:41:08.799Z,17.75
2019-05-14T10:42:08.315Z,16.51
2019-05-14T10:43:08.875Z,16.47
2019-05-14T10:44:09.055Z,16.62
2019-05-14T10:45:10.075Z,17.28
2019-05-14T10:46:08.872Z,17.71
2019-05-14T10:47:08.972Z,17.73
2019-05-14T10:48:06.352Z,18.12
2019-05-14T10:49:17.455Z,17.90
2019-05-14T10:50:13.308Z,17.60
2019-05-14T10:51:06.489Z,17.54
2019-05-14T10:52:08.233Z,17.95
2019-05-14T10:53:09.008Z,18.33
2019-05-14T10:54:21.636Z,17.56
2019-05-14T10:55:08.055Z,17.23
2019-05-14T10:56:06.717Z,17.44
2019-05-14T10:57:09.375Z,17.22
2019-05-14T10:58:08.967Z,17.38
2019-05-14T10:59:09.318Z,17.46
2019-05-14T11:00:08.854Z,17.56
2019-05-14T11:01:11.303Z,17.49
2019-05-14T11:02:11.567Z,17.71
2019-05-14T11:03:07.045Z,18.36
2019-05-14T11:04:07.092Z,18.73
2019-05-14T11:05:07.133Z,18.58
2019-05-14T11:06:11.365Z,19.35
2019-05-14T11:07:07.236Z,19.53
2019-05-14T11:08:11.668Z,18.83
2019-05-14T11:09:09.032Z,18.92
2019-05-14T11:10:09.185Z,18.58
2019-05-14T11:11:10.261Z,18.24
2019-05-14T11:12:08.991Z,18.09
2019-05-14T11:13:08.933Z,17.75
2019-05-14T11:14:08.809Z,18.18
2019-05-14T11:15:07.602Z,18.27
2019-05-14T11:16:08.639Z,17.87
2019-05-14T11:17:11.870Z,17.73
2019-05-14T11:18:08.630Z,17.72
2019-05-14T11:19:09.536Z,17.41
2019-05-14T11:20:08.140Z,17.16
2019-05-14T11:21:21.594Z,16.98
2019-05-14T11:22:08.402Z,17.54
2019-05-14T11:23:08.994Z,17.57
2019-05-14T11:24:09.436Z,17.49
2019-05-14T11:25:09.140Z,17.69
2019-05-14T11:26:09.225Z,17.54
2019-05-14T11:27:08.165Z,17.66
2019-05-14T11:28:08.205Z,18.28
2019-05-14T11:29:08.250Z,18.21
2019-05-14T11:30:09.052Z,18.57
2019-05-14T11:31:09.237Z,18.74
2019-05-14T11:32:09.770Z,18.83
2019-05-14T11:33:09.115Z,19.22
2019-05-14T11:34:08.480Z,18.46
2019-05-14T11:35:12.968Z,17.69
2019-05-14T11:36:09.394Z,17.31
2019-05-14T11:37:08.731Z,16.98
2019-05-14T11:38:27.961Z,17.71
2019-05-14T11:39:09.358Z,17.30
2019-05-14T11:40:08.828Z,17.20
2019-05-14T11:41:09.666Z,17.30
2019-05-14T11:42:08.852Z,17.24
2019-05-14T11:43:08.915Z,17.17
2019-05-14T11:44:09.265Z,17.32
2019-05-14T11:45:09.123Z,17.59
2019-05-14T11:46:09.036Z,17.52
2019-05-14T11:47:09.310Z,17.01
2019-05-14T11:48:09.133Z,16.58
2019-05-14T11:49:09.178Z,16.51
2019-05-14T11:50:10.068Z,16.97
2019-05-14T11:51:09.340Z,17.24
2019-05-14T11:52:11.792Z,17.32
2019-05-14T11:53:09.364Z,17.35
2019-05-14T11:54:09.649Z,16.76
2019-05-14T11:55:09.457Z,15.65
2019-05-14T11:56:09.504Z,15.78
2019-05-14T11:57:11.548Z,15.80
2019-05-14T11:58:09.592Z,16.72
2019-05-14T11:59:09.644Z,17.30
2019-05-14T12:00:09.687Z,16.51
2019-05-14T12:01:09.736Z,16.34
2019-05-14T12:02:09.831Z,16.91
2019-05-14T12:03:09.822Z,17.32
2019-05-14T12:04:09.867Z,17.17
2019-05-14T12:05:09.917Z,17.49
2019-05-14T12:06:10.137Z,17.39
2019-05-14T12:07:10.005Z,17.30
2019-05-14T12:08:10.052Z,16.87
2019-05-14T12:09:11.852Z,16.54
2019-05-14T12:10:10.146Z,16.12
2019-05-14T12:11:10.194Z,15.69
2019-05-14T12:12:12.166Z,15.84
2019-05-14T12:13:10.283Z,15.69
2019-05-14T12:14:10.327Z,15.59
2019-05-14T12:15:10.377Z,15.51
2019-05-14T12:16:10.421Z,15.25
2019-05-14T12:17:10.463Z,15.07
2019-05-14T12:18:10.629Z,14.96
2019-05-14T12:19:11.959Z,15.45
2019-05-14T12:20:10.598Z,16.05
2019-05-14T12:21:10.643Z,16.59
2019-05-14T12:22:11.816Z,17.44
2019-05-14T12:23:10.757Z,17.68
2019-05-14T12:24:13.693Z,17.37
2019-05-14T12:25:10.827Z,17.16
2019-05-14T12:26:10.874Z,16.39
2019-05-14T12:27:10.920Z,16.43
2019-05-14T12:28:13.599Z,16.57
2019-05-14T12:29:11.004Z,16.74
2019-05-14T12:30:11.049Z,15.99
2019-05-14T12:31:11.105Z,16.43
2019-05-14T12:32:12.996Z,16.66
2019-05-14T12:33:11.186Z,16.54
2019-05-14T12:34:11.233Z,16.68
2019-05-14T12:35:11.275Z,16.51
2019-05-14T12:36:11.320Z,16.68
2019-05-14T12:37:11.367Z,16.73
2019-05-14T12:38:11.411Z,16.37
2019-05-14T12:39:11.455Z,15.91
2019-05-14T12:40:11.498Z,16.02
2019-05-14T12:41:11.543Z,16.31
2019-05-14T12:42:11.620Z,16.25
2019-05-14T12:43:11.637Z,16.44
2019-05-14T12:44:11.680Z,17.01
2019-05-14T12:45:11.725Z,17.41
2019-05-14T12:46:11.769Z,16.50
2019-05-14T12:47:11.814Z,16.91
2019-05-14T12:48:11.861Z,15.92
2019-05-14T12:49:11.978Z,15.30
2019-05-14T12:50:11.950Z,15.11
2019-05-14T12:51:11.994Z,15.04
2019-05-14T12:52:22.304Z,15.27
2019-05-14T12:53:12.087Z,15.83
2019-05-14T12:54:12.128Z,15.66
2019-05-14T12:55:12.173Z,16.18
2019-05-14T12:56:12.217Z,16.44
2019-05-14T12:57:12.264Z,16.41
2019-05-14T12:58:12.306Z,16.25
2019-05-14T12:59:12.350Z,16.37
2019-05-14T13:00:12.399Z,16.59
2019-05-14T13:01:12.440Z,17.14
2019-05-14T13:02:12.486Z,17.07
2019-05-14T13:03:12.528Z,16.41
2019-05-14T13:04:12.571Z,16.79
2019-05-14T13:05:12.621Z,16.99